createdAt,value
2018-07-13T00:02:17.571Z,93.90
2018-07-13T00:07:22.351Z,94.80
2018-07-13T00:12:27.326Z,95.00
2018-07-13T00:17:32.663Z,95.30
2018-07-13T00:22:37.418Z,95.50
2018-07-13T00:27:42.181Z,95.50
2018-07-13T00:32:47.088Z,96.40
2018-07-13T00:37:51.877Z,95.90
2018-07-13T00:42:56.420Z,96.60
2018-07-13T00:48:01.318Z,97.30
2018-07-13T00:53:06.285Z,97.80
2018-07-13T00:58:11.201Z,98.20
2018-07-13T01:03:15.937Z,97.60
2018-07-13T01:08:20.499Z,96.50
2018-07-13T01:13:25.226Z,97.20
2018-07-13T01:18:29.987Z,97.50
2018-07-13T01:23:34.691Z,98.00
2018-07-13T01:28:39.651Z,98.30
2018-07-13T01:33:44.378Z,98.90
2018-07-13T01:38:48.919Z,99.50
2018-07-13T01:43:53.759Z,99.40
2018-07-13T01:48:58.345Z,98.90
2018-07-13T01:54:03.122Z,99.10
2018-07-13T01:59:07.890Z,99.00
2018-07-13T02:04:12.685Z,99.30
2018-07-13T02:09:17.441Z,99.60
2018-07-13T02:14:22.084Z,99.60
2018-07-13T02:19:26.970Z,99.60
2018-07-13T02:24:31.785Z,99.60
2018-07-13T02:29:36.527Z,99.60
2018-07-13T02:34:41.476Z,99.60
2018-07-13T02:39:46.330Z,99.60
2018-07-13T02:49:55.212Z,99.60
2018-07-13T02:54:59.926Z,99.60
2018-07-13T03:00:04.904Z,99.60
2018-07-13T03:05:09.622Z,99.60
2018-07-13T03:10:14.346Z,99.60
2018-07-13T03:15:19.462Z,99.60
2018-07-13T03:20:24.969Z,99.60
2018-07-13T03:25:29.682Z,99.60
2018-07-13T03:30:34.359Z,99.60
2018-07-13T03:35:39.062Z,99.60
2018-07-13T03:40:43.828Z,99.60
2018-07-13T03:45:48.640Z,99.60
2018-07-13T03:50:53.490Z,99.60
2018-07-13T03:55:58.289Z,99.60
2018-07-13T04:01:03.099Z,99.60
2018-07-13T04:06:07.855Z,99.60
2018-07-13T04:11:12.611Z,99.60
2018-07-13T04:16:17.625Z,99.60
2018-07-13T04:21:22.903Z,99.60
2018-07-13T04:26:27.723Z,99.60
2018-07-13T04:31:32.476Z,99.60
2018-07-13T04:36:37.245Z,99.60
2018-07-13T04:41:42.603Z,99.60
2018-07-13T04:46:48.482Z,99.60
2018-07-13T04:51:53.476Z,99.60
2018-07-13T04:56:58.412Z,99.60
2018-07-13T05:02:03.299Z,99.60
2018-07-13T05:07:08.424Z,99.60
2018-07-13T05:12:13.263Z,99.60
2018-07-13T05:17:18.301Z,98.80
2018-07-13T05:22:23.023Z,98.20
2018-07-13T05:27:28.180Z,97.70
2018-07-13T05:32:33.065Z,98.10
2018-07-13T05:37:37.884Z,98.00
2018-07-13T05:42:42.817Z,97.10
2018-07-13T05:47:47.674Z,94.80
2018-07-13T05:52:52.664Z,95.00
2018-07-13T05:57:57.496Z,94.10
2018-07-13T06:03:02.514Z,94.10
2018-07-13T06:08:07.374Z,94.30
2018-07-13T06:13:13.155Z,94.20
2018-07-13T06:18:17.979Z,94.50
2018-07-13T06:23:22.729Z,94.20
2018-07-13T06:28:27.457Z,94.70
2018-07-13T06:33:32.500Z,95.80
2018-07-13T06:38:37.336Z,95.50
2018-07-13T06:43:41.983Z,96.40
2018-07-13T06:48:46.839Z,97.00
2018-07-13T06:53:52.376Z,96.20
2018-07-13T06:59:05.043Z,95.90
2018-07-13T07:04:29.322Z,95.70
2018-07-13T07:09:33.967Z,96.00
2018-07-13T07:14:38.895Z,95.80
2018-07-13T07:24:48.545Z,95.60
2018-07-13T07:29:53.315Z,94.60
2018-07-13T07:34:57.827Z,93.70
2018-07-13T07:40:02.887Z,93.80
2018-07-13T07:45:07.731Z,92.50
2018-07-13T07:50:12.490Z,91.10
2018-07-13T07:55:17.523Z,91.10
2018-07-13T08:00:22.354Z,90.20
2018-07-13T08:05:27.315Z,90.50
2018-07-13T08:10:32.181Z,89.20
2018-07-13T08:15:36.915Z,90.80
2018-07-13T08:20:46.697Z,89.60
2018-07-13T08:25:51.944Z,90.10
2018-07-13T08:30:59.661Z,89.80
2018-07-13T08:36:04.683Z,89.50
2018-07-13T08:41:09.906Z,89.30
2018-07-13T08:46:14.601Z,88.90
2018-07-13T08:51:19.866Z,87.80
2018-07-13T08:56:24.839Z,88.10
2018-07-13T09:01:29.696Z,87.00
2018-07-13T09:11:38.551Z,86.10
2018-07-13T09:16:43.490Z,86.60
2018-07-13T09:21:48.256Z,85.30
2018-07-13T09:26:53.092Z,85.40
2018-07-13T09:31:58.529Z,84.70
2018-07-13T09:37:03.962Z,84.20
2018-07-13T09:42:09.206Z,85.00
2018-07-13T09:47:14.620Z,85.50
2018-07-13T09:52:19.215Z,85.60
2018-07-13T09:57:24.579Z,83.90
2018-07-13T10:02:29.380Z,83.90
2018-07-13T10:07:35.008Z,83.60
2018-07-13T10:12:39.911Z,82.80
2018-07-13T10:17:44.984Z,83.70
2018-07-13T10:22:49.940Z,82.90
2018-07-13T10:27:55.379Z,82.90
2018-07-13T10:33:00.703Z,82.10
2018-07-13T10:38:05.782Z,80.40
2018-07-13T10:43:11.287Z,79.80
2018-07-13T10:48:16.883Z,78.60
2018-07-13T10:53:21.539Z,78.00
2018-07-13T10:58:26.238Z,78.00
2018-07-13T11:03:30.830Z,78.10
2018-07-13T11:08:35.862Z,75.50
2018-07-13T11:13:40.771Z,75.60
2018-07-13T11:18:46.037Z,74.00
2018-07-13T11:23:51.526Z,77.80
2018-07-13T11:28:56.427Z,78.30
2018-07-13T11:34:01.297Z,78.70
2018-07-13T11:39:07.681Z,73.60
2018-07-13T11:44:12.984Z,77.50
2018-07-13T11:49:17.984Z,74.10
2018-07-13T11:54:22.856Z,72.00
2018-07-13T11:59:27.911Z,68.60
2018-07-13T12:04:32.617Z,67.60
2018-07-13T12:09:36.942Z,66.30
2018-07-13T12:14:41.776Z,65.20
2018-07-13T12:19:46.822Z,63.70
2018-07-13T12:24:52.465Z,60.50
2018-07-13T12:29:57.188Z,60.70
2018-07-13T12:35:01.828Z,56.90
2018-07-13T12:40:06.569Z,56.70
2018-07-13T12:45:11.253Z,56.60
2018-07-13T12:50:17.733Z,57.70
2018-07-13T12:55:23.203Z,57.40
2018-07-13T13:00:28.160Z,58.10
2018-07-13T13:05:32.892Z,56.10
2018-07-13T13:10:37.893Z,57.20
2018-07-13T13:15:42.648Z,56.00
2018-07-13T13:20:48.194Z,56.20
2018-07-13T13:25:52.984Z,53.60
2018-07-13T13:30:57.742Z,52.00
2018-07-13T13:36:02.849Z,53.50
2018-07-13T13:41:07.473Z,53.90
2018-07-13T13:46:12.017Z,52.00
2018-07-13T13:51:17.807Z,51.00
2018-07-13T13:56:22.735Z,51.00
2018-07-13T14:01:27.361Z,51.30
2018-07-13T14:06:32.201Z,51.80
2018-07-13T14:11:36.733Z,52.30
2018-07-13T14:21:45.605Z,55.70
2018-07-13T14:26:51.394Z,56.50
2018-07-13T14:31:56.300Z,53.80
2018-07-13T14:37:01.254Z,53.70
2018-07-13T14:42:05.959Z,53.30
2018-07-13T14:47:11.074Z,53.40
2018-07-13T14:52:16.276Z,52.30
2018-07-13T14:57:21.337Z,54.20
2018-07-13T15:02:26.156Z,54.00
2018-07-13T15:07:31.083Z,53.10
2018-07-13T15:12:36.032Z,52.30
2018-07-13T15:17:40.768Z,53.00
2018-07-13T15:22:45.625Z,51.60
2018-07-13T15:27:50.305Z,52.20
2018-07-13T15:32:55.249Z,55.80
2018-07-13T15:38:00.326Z,56.20
2018-07-13T15:43:04.940Z,55.70
2018-07-13T15:48:10.010Z,55.00
2018-07-13T15:53:15.331Z,57.70
2018-07-13T15:58:20.255Z,58.70
2018-07-13T16:03:25.421Z,57.90
2018-07-13T16:08:30.199Z,56.90
2018-07-13T16:13:35.189Z,54.70
2018-07-13T16:18:40.958Z,55.50
2018-07-13T16:23:46.853Z,56.40
2018-07-13T16:28:51.699Z,56.30
2018-07-13T16:33:57.559Z,59.00
2018-07-13T16:39:02.401Z,58.20
2018-07-13T16:44:07.002Z,55.90
2018-07-13T16:49:11.948Z,55.90
2018-07-13T16:54:17.017Z,56.20
2018-07-13T16:59:21.755Z,59.90
2018-07-13T17:04:27.115Z,63.20
2018-07-13T17:09:32.223Z,64.10
2018-07-13T17:14:37.016Z,64.10
2018-07-13T17:19:41.855Z,67.30
2018-07-13T17:24:46.884Z,68.80
2018-07-13T17:29:51.897Z,69.00
2018-07-13T17:40:01.280Z,69.40
2018-07-13T17:45:06.346Z,70.90
2018-07-13T17:50:11.135Z,71.00
2018-07-13T17:55:16.381Z,71.10
2018-07-13T18:00:21.464Z,70.30
2018-07-13T18:05:26.303Z,71.80
2018-07-13T18:10:31.064Z,71.30
2018-07-13T18:15:36.239Z,70.20
2018-07-13T18:20:41.984Z,71.20
2018-07-13T18:25:47.483Z,72.80
2018-07-13T18:30:52.364Z,72.70
2018-07-13T18:35:57.214Z,70.90
2018-07-13T18:41:01.908Z,72.80
2018-07-13T18:46:06.875Z,72.90
2018-07-13T18:51:11.731Z,76.70
2018-07-13T18:56:17.711Z,80.20
2018-07-13T19:01:22.509Z,81.40
2018-07-13T19:06:27.865Z,82.40
2018-07-13T19:11:34.060Z,82.60
2018-07-13T19:16:38.761Z,82.30
2018-07-13T19:21:43.547Z,82.00
2018-07-13T19:26:48.417Z,82.50
2018-07-13T19:31:53.503Z,83.10
2018-07-13T19:36:58.728Z,83.30
2018-07-13T19:42:03.831Z,84.00
2018-07-13T19:47:08.639Z,83.70
2018-07-13T19:52:13.494Z,84.30
2018-07-13T19:57:18.492Z,83.20
2018-07-13T20:02:23.229Z,83.80
2018-07-13T20:07:30.566Z,83.90
2018-07-13T20:12:35.057Z,83.80
2018-07-13T20:17:44.531Z,84.20
2018-07-13T20:22:49.610Z,82.90
2018-07-13T20:27:54.569Z,83.00
2018-07-13T20:32:59.476Z,83.20
2018-07-13T20:38:04.629Z,82.90
2018-07-13T20:43:09.745Z,82.30
2018-07-13T20:48:15.741Z,82.20
2018-07-13T20:53:20.785Z,80.80
2018-07-13T20:58:25.855Z,82.10
2018-07-13T21:03:30.835Z,81.80
2018-07-13T21:08:35.413Z,82.30
2018-07-13T21:13:40.690Z,83.20
2018-07-13T21:18:45.861Z,84.20
2018-07-13T21:23:50.408Z,85.70
2018-07-13T21:28:54.942Z,86.60
2018-07-13T21:33:59.720Z,87.90
2018-07-13T21:39:05.457Z,88.40
2018-07-13T21:44:10.426Z,88.90
2018-07-13T21:49:15.326Z,89.10
2018-07-13T21:54:20.151Z,89.30
2018-07-13T21:59:24.778Z,89.30
2018-07-13T22:04:29.496Z,89.70
2018-07-13T22:09:34.261Z,89.70
2018-07-13T22:14:39.594Z,89.30
2018-07-13T22:19:44.297Z,89.70
2018-07-13T22:24:49.040Z,90.00
2018-07-13T22:29:54.152Z,89.80
2018-07-13T22:34:58.725Z,89.60
2018-07-13T22:40:03.472Z,90.10
2018-07-13T22:45:08.096Z,89.70
2018-07-13T22:50:12.978Z,89.10
2018-07-13T22:55:17.589Z,88.40
2018-07-13T23:00:22.404Z,89.20
2018-07-13T23:05:32.709Z,90.90
2018-07-13T23:10:37.733Z,90.10
2018-07-13T23:15:42.340Z,90.20
2018-07-13T23:20:47.285Z,89.80
2018-07-13T23:25:51.845Z,89.70
2018-07-13T23:30:56.764Z,90.80
2018-07-13T23:36:01.591Z,92.30
2018-07-13T23:41:06.340Z,92.20
2018-07-13T23:46:11.088Z,91.30
2018-07-13T23:51:15.812Z,90.70
2018-07-13T23:56:20.628Z,90.10
